シンガポール/チャンギ の空港の天気 - METARとTAF

シンガポール・チャンギ国際空港 ( WSSS / SIN ) - シンガポール Changi
飛行場実況気象(Metar)
観測時間04/27 15:00 +08 (04/27 07:00 UTC)
風向・風速南南西 3m/s
視程10km以上
天気現象
少しの雲 雲底高度 610m
少しの雲 雲底高度 670m
全天の8割程度の雲 雲底高度 9140m
気温31℃
湿度75%
気圧1008hPa
METARWSSS 270700Z 21005KT 180V250 9999 FEW020CB FEW022TCU BKN300 31/26 Q1008 NOSIG
過去の天気等 Google飛行場航空写真 Wunderground天気予報

過去48時間のMETAR

飛行場予報(TAF)
発表時間: 4/27 13:00 +08 (4/27 05:00 UTC)
予報対象時間: 27日14時 +08 ~ 28日20時 +08
風向・風速西 4m/s
視程10km以上
少しの積乱雲 雲底高度 550m
全天の4割程度の雲 雲底高度 610m
27日14時 +08 ~ 27日18時 +08 に一時的に
視程3,000m
天気現象雷雨
少しの積乱雲 雲底高度 370m
全天の8割程度の雲 雲底高度 460m
28日7時 +08 ~ 28日11時 +08 に一時的に
視程3,000m
天気現象雷雨
少しの積乱雲 雲底高度 370m
全天の8割程度の雲 雲底高度 460m
TAF WSSS 270500Z 2706/2812 27007KT 9999 FEW018CB SCT020
TEMPO 2706/2710 3000 TSRA FEW012CB BKN015
TEMPO 2723/2803 3000 TSRA FEW012CB BKN015